| time (UTC) | temp C | wind direction | speed KPH | gust KPH | rain 1hr cm | rain 24hr cm | rain mn cm | humidity % | barometer mb |
| 20260906104545 | 21 | 0 | 0.0 | 1.6 | 0.00 | 0.10 | 0.00 | 93 | 1014.7 |
| 20260906103053 | 21 | 0 | 0.0 | 1.6 | 0.00 | 0.10 | 0.00 | 92 | 1014.6 |
| 20260906101556 | 21 | 0 | 0.0 | 1.6 | 0.00 | 0.10 | 0.00 | 92 | 1014.5 |
| 20260906100046 | 21 | 0 | 0.0 | 3.2 | 0.00 | 0.10 | 0.00 | 92 | 1014.2 |
| 20260906094545 | 21 | 11 | 0.0 | 4.8 | 0.00 | 0.10 | 0.00 | 92 | 1014.0 |
| 20260906093057 | 21 | 0 | 0.0 | 3.2 | 0.00 | 0.10 | 0.00 | 92 | 1013.9 |
| 20260906091545 | 21 | 0 | 0.0 | 0.0 | 0.00 | 0.10 | 0.00 | 92 | 1013.8 |
| 20260906090045 | 21 | 0 | 0.0 | 0.0 | 0.00 | 0.10 | 0.00 | 91 | 1013.6 |
| 20260906084556 | 21 | 0 | 0.0 | 0.0 | 0.00 | 0.10 | 0.00 | 90 | 1013.4 |
| 20260906083049 | 21 | 0 | 0.0 | 0.0 | 0.00 | 0.10 | 0.00 | 89 | 1013.5 |
| 20260906081555 | 21 | 0 | 0.0 | 1.6 | 0.00 | 0.10 | 0.00 | 89 | 1013.3 |
| 20260906080058 | 21 | 0 | 0.0 | 1.6 | 0.00 | 0.10 | 0.00 | 88 | 1013.1 |
| 20260906074559 | 22 | 0 | 0.0 | 1.6 | 0.00 | 0.10 | 0.00 | 87 | 1013.0 |
| 20260906073047 | 22 | 321 | 0.0 | 4.8 | 0.00 | 0.10 | 0.00 | 87 | 1012.9 |
| 20260906071555 | 22 | 0 | 0.0 | 3.2 | 0.00 | 0.10 | 0.00 | 88 | 1013.2 |
| 20260906070051 | 22 | 0 | 0.0 | 1.6 | 0.00 | 0.10 | 0.00 | 87 | 1013.4 |
| 20260906064545 | 21 | 0 | 0.0 | 1.6 | 0.00 | 0.10 | 0.00 | 89 | 1013.7 |
| 20260906063046 | 21 | 0 | 0.0 | 0.0 | 0.00 | 0.10 | 0.00 | 88 | 1013.8 |
| 20260906061552 | 22 | 0 | 0.0 | 0.0 | 0.00 | 0.10 | 0.00 | 88 | 1013.9 |
| 20260906060059 | 22 | 0 | 0.0 | 1.6 | 0.00 | 0.10 | 0.00 | 87 | 1014.0 |
| 20260906054548 | 22 | 0 | 0.0 | 0.0 | 0.00 | 0.10 | 0.00 | 86 | 1013.9 |
| 20260906053042 | 22 | 0 | 0.0 | 1.6 | 0.00 | 0.10 | 0.00 | 85 | 1013.8 |
| 20260906051555 | 22 | 0 | 0.0 | 0.0 | 0.00 | 0.10 | 0.00 | 85 | 1013.6 |
| 20260906050053 | 23 | 0 | 0.0 | 0.0 | 0.00 | 0.10 | 0.00 | 84 | 1013.9 |
| 20260906044545 | 23 | 0 | 0.0 | 0.0 | 0.00 | 0.10 | 0.00 | 82 | 1014.0 |
| 20260906043053 | 23 | 0 | 0.0 | 0.0 | 0.00 | 0.10 | 0.00 | 83 | 1014.0 |
| 20260906041550 | 23 | 0 | 0.0 | 1.6 | 0.00 | 0.10 | 0.00 | 82 | 1014.2 |
| 20260906040049 | 23 | 0 | 0.0 | 1.6 | 0.00 | 0.10 | 0.00 | 82 | 1014.3 |
| 20260906034542 | 24 | 0 | 0.0 | 3.2 | 0.00 | 0.10 | 0.10 | 80 | 1014.3 |
| 20260906033054 | 23 | 0 | 0.0 | 0.0 | 0.00 | 0.10 | 0.10 | 83 | 1014.3 |
| 20260906031549 | 23 | 0 | 0.0 | 1.6 | 0.00 | 0.10 | 0.10 | 83 | 1014.1 |
| 20260906030046 | 24 | 0 | 0.0 | 3.2 | 0.00 | 0.10 | 0.10 | 80 | 1014.2 |
| 20260906024552 | 23 | 0 | 0.0 | 0.0 | 0.00 | 0.10 | 0.10 | 81 | 1014.2 |
| 20260906023052 | 23 | 0 | 0.0 | 0.0 | 0.00 | 0.10 | 0.10 | 83 | 1014.0 |
| 20260906021557 | 23 | 0 | 0.0 | 1.6 | 0.00 | 0.10 | 0.10 | 82 | 1014.0 |
| 20260906020047 | 23 | 0 | 0.0 | 0.0 | 0.00 | 0.10 | 0.10 | 83 | 1014.0 |
| 20260906014546 | 23 | 0 | 0.0 | 1.6 | 0.00 | 0.10 | 0.10 | 83 | 1014.0 |
| 20260906013044 | 23 | 0 | 0.0 | 0.0 | 0.00 | 0.10 | 0.10 | 83 | 1013.8 |
| 20260906011555 | 23 | 0 | 0.0 | 0.0 | 0.00 | 0.10 | 0.10 | 83 | 1013.7 |
| 20260906010053 | 23 | 0 | 0.0 | 0.0 | 0.00 | 0.10 | 0.10 | 84 | 1013.6 |
| 20260906004549 | 23 | 0 | 0.0 | 0.0 | 0.00 | 0.10 | 0.10 | 85 | 1013.5 |
| 20260906003046 | 23 | 0 | 0.0 | 0.0 | 0.00 | 0.10 | 0.10 | 84 | 1013.5 |
| 20260906001600 | 23 | 0 | 0.0 | 0.0 | 0.00 | 0.10 | 0.10 | 84 | 1013.3 |
| 20260906000049 | 24 | 0 | 0.0 | 0.0 | 0.00 | 0.10 | 0.10 | 83 | 1013.1 |
| 20260905234547 | 24 | 0 | 0.0 | 0.0 | 0.00 | 0.10 | 0.10 | 81 | 1013.1 |
| 20260905233102 | 25 | 0 | 0.0 | 3.2 | 0.00 | 0.10 | 0.10 | 78 | 1013.0 |
| 20260905231556 | 25 | 0 | 0.0 | 3.2 | 0.00 | 0.10 | 0.10 | 78 | 1013.0 |
| 20260905230048 | 25 | 0 | 0.0 | 0.0 | 0.00 | 0.10 | 0.10 | 76 | 1012.8 |
| 20260905224604 | 26 | 0 | 0.0 | 3.2 | 0.00 | 0.10 | 0.10 | 73 | 1012.9 |
| 20260905223054 | 26 | 237 | 0.0 | 3.2 | 0.00 | 0.10 | 0.10 | 74 | 1012.8 |
| 20260905221542 | 26 | 0 | 0.0 | 3.2 | 0.00 | 0.10 | 0.10 | 73 | 1012.8 |
| 20260905220051 | 26 | 238 | 1.6 | 4.8 | 0.00 | 0.10 | 0.10 | 74 | 1012.9 |
| 20260905214545 | 25 | 213 | 1.6 | 6.4 | 0.00 | 0.51 | 0.10 | 74 | 1013.1 |
| 20260905213052 | 25 | 223 | 1.6 | 6.4 | 0.00 | 0.51 | 0.10 | 76 | 1013.2 |
| 20260905211553 | 25 | 261 | 0.0 | 4.8 | 0.00 | 0.51 | 0.10 | 76 | 1013.5 |
| 20260905210049 | 25 | 226 | 3.2 | 8.0 | 0.00 | 0.51 | 0.10 | 77 | 1013.4 |
| 20260905204544 | 24 | 217 | 3.2 | 6.4 | 0.00 | 0.51 | 0.10 | 78 | 1013.3 |
| 20260905203043 | 24 | 242 | 3.2 | 9.7 | 0.00 | 0.51 | 0.10 | 79 | 1013.5 |
| 20260905201542 | 23 | 254 | 1.6 | 11.3 | 0.00 | 0.51 | 0.10 | 82 | 1013.4 |
| 20260905200052 | 23 | 214 | 0.0 | 3.2 | 0.00 | 0.51 | 0.10 | 81 | 1013.1 |
| 20260905194548 | 23 | 0 | 0.0 | 3.2 | 0.00 | 0.51 | 0.10 | 85 | 1013.7 |
| 20260905193044 | 22 | 0 | 0.0 | 4.8 | 0.00 | 0.51 | 0.10 | 86 | 1014.1 |
| 20260905191552 | 22 | 0 | 1.6 | 4.8 | 0.03 | 0.51 | 0.10 | 87 | 1014.0 |
| 20260905190105 | 21 | 0 | 0.0 | 1.6 | 0.08 | 0.51 | 0.10 | 87 | 1013.1 |
| 20260905184606 | 21 | 15 | 0.0 | 3.2 | 0.10 | 0.51 | 0.10 | 88 | 1012.3 |
| 20260905183043 | 21 | 0 | 0.0 | 11.3 | 0.10 | 0.51 | 0.10 | 86 | 1013.2 |
| 20260905181550 | 23 | 250 | 3.2 | 17.7 | 0.08 | 0.48 | 0.08 | 83 | 1014.4 |
| 20260905180046 | 30 | 201 | 3.2 | 12.9 | 0.03 | 0.43 | 0.03 | 62 | 1014.5 |
| 20260905174558 | 32 | 0 | 0.0 | 11.3 | 0.00 | 0.41 | 0.00 | 56 | 1013.7 |
| 20260905173048 | 33 | 0 | 0.0 | 9.7 | 0.00 | 0.41 | 0.00 | 56 | 1013.6 |
| 20260905171545 | 33 | 355 | 1.6 | 11.3 | 0.00 | 0.41 | 0.00 | 55 | 1014.0 |
| 20260905170056 | 33 | 262 | 1.6 | 9.7 | 0.00 | 0.41 | 0.00 | 57 | 1014.5 |
| 20260905164551 | 33 | 332 | 3.2 | 9.7 | 0.00 | 0.41 | 0.00 | 57 | 1014.6 |
| 20260905163046 | 32 | 210 | 0.0 | 8.0 | 0.00 | 0.41 | 0.00 | 61 | 1014.9 |
| 20260905161554 | 32 | 319 | 1.6 | 9.7 | 0.00 | 0.41 | 0.00 | 61 | 1015.0 |
| 20260905160054 | 31 | 203 | 1.6 | 9.7 | 0.00 | 0.41 | 0.00 | 62 | 1015.2 |
| 20260905154544 | 31 | 254 | 3.2 | 9.7 | 0.00 | 0.41 | 0.00 | 62 | 1015.2 |
| 20260905153043 | 31 | 235 | 3.2 | 9.7 | 0.00 | 0.41 | 0.00 | 68 | 1015.3 |
| 20260905151550 | 30 | 262 | 1.6 | 6.4 | 0.00 | 0.41 | 0.00 | 70 | 1015.2 |
| 20260905150050 | 30 | 0 | 1.6 | 6.4 | 0.00 | 0.41 | 0.00 | 68 | 1015.3 |
| 20260905144558 | 28 | 209 | 0.0 | 4.8 | 0.00 | 0.41 | 0.00 | 72 | 1015.5 |
| 20260905143053 | 28 | 239 | 1.6 | 8.0 | 0.00 | 0.41 | 0.00 | 73 | 1015.5 |
| 20260905141548 | 27 | 245 | 0.0 | 4.8 | 0.00 | 0.41 | 0.00 | 74 | 1015.3 |
| 20260905140057 | 27 | 206 | 3.2 | 8.0 | 0.00 | 0.41 | 0.00 | 75 | 1015.2 |
| 20260905134552 | 26 | 235 | 3.2 | 6.4 | 0.00 | 0.41 | 0.00 | 80 | 1015.4 |
| 20260905133048 | 26 | 0 | 0.0 | 6.4 | 0.00 | 0.41 | 0.00 | 80 | 1015.2 |
| 20260905131558 | 26 | 0 | 0.0 | 6.4 | 0.00 | 0.41 | 0.00 | 81 | 1015.5 |
| 20260905130055 | 25 | 221 | 0.0 | 3.2 | 0.00 | 0.41 | 0.00 | 82 | 1015.3 |
| 20260905124552 | 24 | 0 | 0.0 | 1.6 | 0.00 | 0.41 | 0.00 | 84 | 1015.5 |
| 20260905123055 | 23 | 0 | 0.0 | 1.6 | 0.00 | 0.41 | 0.00 | 86 | 1015.5 |
| 20260905121545 | 23 | 0 | 0.0 | 1.6 | 0.00 | 0.41 | 0.00 | 88 | 1015.8 |
| 20260905120054 | 22 | 0 | 0.0 | 0.0 | 0.00 | 0.41 | 0.00 | 89 | 1015.5 |
| 20260905114547 | 22 | 0 | 0.0 | 0.0 | 0.00 | 0.41 | 0.00 | 89 | 1015.4 |
| 20260905113044 | 22 | 0 | 0.0 | 1.6 | 0.00 | 0.41 | 0.00 | 91 | 1015.1 |
| 20260905111551 | 22 | 0 | 0.0 | 1.6 | 0.00 | 0.41 | 0.00 | 91 | 1015.0 |
| 20260905110052 | 22 | 0 | 0.0 | 0.0 | 0.00 | 0.41 | 0.00 | 91 | 1015.0 |